KLBE

Arnold Palmer Regional Airport

Latrobe, Pennsylvania, USA
METAR KLBE 181945Z 24009KT 7SM BKN008 OVC023 06/06 A2998
Observed Flight Rules
Dec-18 @ 19:45 UTC (47 minutes ago) Instrument Flight Rules
Wind Visibility Clouds
240° at 9 knots 7 miles
  • Broken at 800' AGL
  • Overcast at 2,300' AGL
Temperatures Readings
Current 6°C / 43°F
Dewpoint 6°C / 43°F
Humidity 100%
Altimeter 29.98" Hg
Pressure 1015 hPa
Elevation 361
METAR KLBE 181945Z 24009KT 7SM BKN008 OVC023 06/06 A2998
Observed Flight Rules
Dec-18 @ 19:45 UTC
(47 minutes ago)
IFR
Wind Visibility
240° at 9 knots 7 miles
Clouds
  • Broken at 800' AGL
  • Overcast at 2,300' AGL
Temperature Dewpoint
6°C / 43°F 6°C / 43°F
Humidity Altimeter Pressure
100% 29.98" Hg 1015 hPa